createdAt,value
2018-09-03T00:02:23.598Z,63.85
2018-09-03T00:07:27.199Z,63.40
2018-09-03T00:12:30.197Z,63.98
2018-09-03T00:17:33.223Z,64.22
2018-09-03T00:22:36.221Z,64.72
2018-09-03T00:27:39.338Z,65.14
2018-09-03T00:32:48.602Z,65.61
2018-09-03T00:37:57.849Z,64.99
2018-09-03T00:43:06.554Z,65.23
2018-09-03T00:48:09.733Z,65.08
2018-09-03T00:53:13.414Z,64.96
2018-09-03T00:58:18.614Z,65.05
2018-09-03T01:03:22.335Z,65.40
2018-09-03T01:08:26.240Z,65.62
2018-09-03T01:13:29.361Z,66.44
2018-09-03T01:18:36.944Z,66.78
2018-09-03T01:23:40.011Z,68.02
2018-09-03T01:28:43.126Z,68.03
2018-09-03T01:33:52.197Z,68.13
2018-09-03T01:38:55.624Z,68.18
2018-09-03T01:43:58.829Z,68.57
2018-09-03T01:49:02.144Z,68.89
2018-09-03T01:54:05.402Z,68.82
2018-09-03T01:59:08.395Z,69.54
2018-09-03T02:04:12.060Z,69.21
2018-09-03T02:09:17.242Z,69.19
2018-09-03T02:14:21.701Z,69.52
2018-09-03T02:19:25.556Z,69.62
2018-09-03T02:24:29.118Z,70.26
2018-09-03T02:29:32.134Z,70.64
2018-09-03T02:34:35.101Z,70.54
2018-09-03T02:39:38.045Z,70.87
2018-09-03T02:44:41.545Z,70.92
2018-09-03T02:49:46.154Z,71.69
2018-09-03T02:54:50.982Z,71.95
2018-09-03T02:59:55.062Z,72.94
2018-09-03T03:04:58.703Z,72.54
2018-09-03T03:10:02.095Z,72.85
2018-09-03T03:15:05.732Z,72.90
2018-09-03T03:20:09.377Z,72.88
2018-09-03T03:25:13.444Z,73.36
2018-09-03T03:30:20.636Z,73.98
2018-09-03T03:35:25.184Z,73.94
2018-09-03T03:40:29.031Z,74.13
2018-09-03T03:45:32.381Z,74.53
2018-09-03T03:50:35.803Z,74.12
2018-09-03T03:55:39.208Z,74.31
2018-09-03T04:00:42.591Z,74.90
2018-09-03T04:05:47.318Z,75.17
2018-09-03T04:10:51.419Z,75.16
2018-09-03T04:15:55.193Z,76.01
2018-09-03T04:20:58.598Z,75.80
2018-09-03T04:26:01.950Z,75.08
2018-09-03T04:31:05.357Z,75.68
2018-09-03T04:36:08.883Z,75.26
2018-09-03T04:41:12.353Z,75.89
2018-09-03T04:46:18.226Z,75.88
2018-09-03T04:51:23.241Z,76.05
2018-09-03T04:56:27.657Z,76.56
2018-09-03T05:01:31.255Z,76.48
2018-09-03T05:06:34.682Z,76.72
2018-09-03T05:11:38.079Z,76.90
2018-09-03T05:16:41.462Z,77.21
2018-09-03T05:21:47.126Z,77.40
2018-09-03T05:26:53.229Z,77.42
2018-09-03T05:31:58.303Z,77.50
2018-09-03T05:37:01.727Z,77.34
2018-09-03T05:42:05.626Z,77.58
2018-09-03T05:47:09.115Z,77.03
2018-09-03T05:52:12.584Z,77.13
2018-09-03T05:57:21.858Z,76.71
2018-09-03T06:02:26.754Z,76.23
2018-09-03T06:07:32.192Z,75.57
2018-09-03T06:12:35.832Z,75.68
2018-09-03T06:17:39.096Z,75.17
2018-09-03T06:22:42.435Z,75.43
2018-09-03T06:27:45.822Z,75.86
2018-09-03T06:32:49.252Z,75.84
2018-09-03T06:37:58.945Z,76.67
2018-09-03T06:43:04.761Z,76.28
2018-09-03T06:48:08.184Z,76.10
2018-09-03T06:53:13.942Z,75.23
2018-09-03T06:58:17.371Z,75.57
2018-09-03T07:03:20.832Z,75.47
2018-09-03T07:08:24.423Z,74.26
2018-09-03T07:13:27.782Z,73.28
2018-09-03T07:18:37.021Z,73.34
2018-09-03T07:23:43.745Z,72.94
2018-09-03T07:28:47.321Z,72.97
2018-09-03T07:33:50.807Z,71.88
2018-09-03T07:38:54.233Z,72.50
2018-09-03T07:43:58.520Z,71.66
2018-09-03T07:49:09.021Z,70.82
2018-09-03T07:54:13.755Z,69.41
2018-09-03T07:59:17.240Z,70.58
2018-09-03T08:04:20.624Z,69.13
2018-09-03T08:09:24.188Z,69.59
2018-09-03T08:14:33.137Z,68.42
2018-09-03T08:19:37.991Z,67.55
2018-09-03T08:24:41.392Z,67.02
2018-09-03T08:29:44.967Z,67.20
2018-09-03T08:34:50.253Z,68.11
2018-09-03T08:39:53.545Z,67.13
2018-09-03T08:45:01.607Z,66.23
2018-09-03T08:50:06.961Z,66.63
2018-09-03T08:55:10.685Z,66.37
2018-09-03T09:00:14.080Z,66.62
2018-09-03T09:05:17.447Z,65.70
2018-09-03T09:10:20.974Z,65.34
2018-09-03T09:15:24.334Z,66.03
2018-09-03T09:20:34.877Z,65.41
2018-09-03T09:25:39.583Z,64.13
2018-09-03T09:30:43.004Z,62.91
2018-09-03T09:35:46.707Z,62.78
2018-09-03T09:40:51.156Z,61.36
2018-09-03T09:45:58.331Z,60.10
2018-09-03T09:51:02.590Z,60.17
2018-09-03T09:56:06.163Z,59.87
2018-09-03T10:01:17.549Z,60.24
2018-09-03T10:06:25.974Z,59.11
2018-09-03T10:11:32.066Z,59.37
2018-09-03T10:16:35.580Z,58.80
2018-09-03T10:21:38.967Z,57.99
2018-09-03T10:26:42.381Z,57.20
2018-09-03T10:31:46.094Z,56.98
2018-09-03T10:36:49.549Z,57.20
2018-09-03T10:41:53.606Z,56.98
2018-09-03T10:46:57.010Z,56.64
2018-09-03T10:52:00.438Z,56.47
2018-09-03T10:57:06.947Z,56.39
2018-09-03T11:02:13.477Z,55.21
2018-09-03T11:07:16.994Z,55.10
2018-09-03T11:12:20.457Z,54.87
2018-09-03T11:17:24.795Z,54.77
2018-09-03T11:22:29.047Z,53.33
2018-09-03T11:27:35.477Z,51.56
2018-09-03T11:32:44.489Z,52.01
2018-09-03T11:37:49.676Z,51.06
2018-09-03T11:42:55.169Z,51.09
2018-09-03T11:47:59.828Z,50.37
2018-09-03T11:53:08.354Z,51.04
2018-09-03T11:58:15.227Z,49.96
2018-09-03T12:03:19.614Z,48.50
2018-09-03T12:08:23.162Z,48.75
2018-09-03T12:13:33.698Z,49.66
2018-09-03T12:18:38.997Z,49.63
2018-09-03T12:23:43.135Z,50.62
2018-09-03T12:28:46.370Z,49.60
2018-09-03T12:33:49.860Z,49.29
2018-09-03T12:38:53.246Z,48.98
2018-09-03T12:44:00.292Z,49.13
2018-09-03T12:49:03.810Z,49.29
2018-09-03T12:54:07.937Z,47.97
2018-09-03T12:59:14.488Z,49.32
2018-09-03T13:04:20.729Z,48.68
2018-09-03T13:09:25.589Z,48.27
2018-09-03T13:14:28.990Z,47.17
2018-09-03T13:19:34.058Z,46.61
2018-09-03T13:24:38.673Z,46.64
2018-09-03T13:29:42.609Z,45.51
2018-09-03T13:34:48.549Z,44.36
2018-09-03T13:39:52.702Z,45.75
2018-09-03T13:45:16.630Z,45.04
2018-09-03T13:50:20.046Z,45.11
2018-09-03T13:55:23.404Z,44.65
2018-09-03T14:00:27.441Z,43.89
2018-09-03T14:10:48.454Z,44.52
2018-09-03T14:15:53.015Z,44.64
2018-09-03T14:20:59.672Z,43.75
2018-09-03T14:26:05.246Z,43.00
2018-09-03T14:31:10.648Z,42.29
2018-09-03T14:36:14.058Z,42.78
2018-09-03T14:41:17.590Z,42.46
2018-09-03T14:46:20.972Z,41.92
2018-09-03T14:51:27.276Z,42.36
2018-09-03T14:56:31.729Z,42.58
2018-09-03T15:01:35.801Z,42.28
2018-09-03T15:06:40.110Z,41.59
2018-09-03T15:11:43.467Z,41.84
2018-09-03T15:16:46.931Z,40.81
2018-09-03T15:21:50.333Z,41.32
2018-09-03T15:26:55.908Z,41.26
2018-09-03T15:32:02.532Z,39.32
2018-09-03T15:37:06.455Z,40.14
2018-09-03T15:42:11.566Z,39.94
2018-09-03T15:47:15.019Z,40.63
2018-09-03T15:52:18.843Z,40.59
2018-09-03T15:57:22.381Z,40.46
2018-09-03T16:02:27.647Z,40.76
2018-09-03T16:07:32.674Z,41.13
2018-09-03T16:12:37.114Z,41.07
2018-09-03T16:17:41.882Z,40.25
2018-09-03T16:22:45.301Z,40.57
2018-09-03T16:27:50.516Z,40.52
2018-09-03T16:32:58.073Z,41.20
2018-09-03T16:38:01.696Z,41.45
2018-09-03T16:43:07.329Z,41.75
2018-09-03T16:48:12.003Z,42.14
2018-09-03T16:53:15.524Z,42.66
2018-09-03T16:58:18.909Z,42.08
2018-09-03T17:03:27.806Z,42.06
2018-09-03T17:08:33.054Z,42.55
2018-09-03T17:13:37.091Z,42.20
2018-09-03T17:18:40.406Z,42.89
2018-09-03T17:23:43.813Z,42.24
2018-09-03T17:28:47.227Z,41.95
2018-09-03T17:33:50.627Z,43.20
2018-09-03T17:38:58.805Z,43.91
2018-09-03T17:44:03.651Z,46.79
2018-09-03T17:49:07.295Z,47.53
2018-09-03T17:54:10.730Z,50.41
2018-09-03T17:59:15.573Z,50.92
2018-09-03T18:04:20.182Z,47.93
2018-09-03T18:09:29.279Z,47.79
2018-09-03T18:14:34.977Z,47.63
2018-09-03T18:19:39.679Z,47.54
2018-09-03T18:24:44.763Z,46.95
2018-09-03T18:29:49.448Z,47.54
2018-09-03T18:34:56.886Z,47.77
2018-09-03T18:40:01.010Z,47.84
2018-09-03T18:45:06.225Z,47.69
2018-09-03T18:50:12.544Z,47.63
2018-09-03T18:55:16.431Z,48.59
2018-09-03T19:00:20.595Z,47.92
2018-09-03T19:05:26.245Z,48.76
2018-09-03T19:10:30.325Z,49.42
2018-09-03T19:15:34.366Z,49.50
2018-09-03T19:20:38.718Z,50.30
2018-09-03T19:25:42.608Z,50.86
2018-09-03T19:30:46.601Z,50.56
2018-09-03T19:35:49.996Z,51.32
2018-09-03T19:40:58.888Z,51.61
2018-09-03T19:46:03.596Z,52.10
2018-09-03T19:51:07.976Z,52.03
2018-09-03T19:56:12.467Z,53.27
2018-09-03T20:01:16.121Z,54.13
2018-09-03T20:06:19.644Z,54.78
2018-09-03T20:11:23.071Z,55.12
2018-09-03T20:16:28.192Z,55.38
2018-09-03T20:21:36.805Z,56.03
2018-09-03T20:26:40.834Z,57.49
2018-09-03T20:31:44.325Z,57.20
2018-09-03T20:36:47.754Z,57.71
2018-09-03T20:41:51.204Z,58.97
2018-09-03T20:46:55.017Z,58.92
2018-09-03T20:52:01.074Z,60.13
2018-09-03T20:57:05.787Z,60.29
2018-09-03T21:02:09.965Z,60.82
2018-09-03T21:07:13.807Z,60.77
2018-09-03T21:12:17.238Z,61.13
2018-09-03T21:17:20.613Z,60.90
2018-09-03T21:22:24.003Z,61.52
2018-09-03T21:27:30.200Z,61.66
2018-09-03T21:32:35.408Z,62.52
2018-09-03T21:37:40.684Z,62.84
2018-09-03T21:42:44.185Z,62.95
2018-09-03T21:47:47.648Z,63.63
2018-09-03T21:52:51.074Z,64.38
2018-09-03T21:57:54.550Z,65.05
2018-09-03T22:03:01.555Z,65.79
2018-09-03T22:08:08.233Z,66.04
2018-09-03T22:13:12.023Z,66.37
2018-09-03T22:18:15.533Z,66.63
2018-09-03T22:23:18.982Z,67.40
2018-09-03T22:28:22.424Z,68.22
2018-09-03T22:33:25.793Z,67.53
2018-09-03T22:38:32.462Z,68.07
2018-09-03T22:43:36.966Z,69.41
2018-09-03T22:48:40.893Z,69.61
2018-09-03T22:53:44.338Z,70.20
2018-09-03T22:58:47.750Z,70.58
2018-09-03T23:03:51.142Z,71.72
2018-09-03T23:08:54.575Z,70.80
2018-09-03T23:13:59.103Z,70.46
2018-09-03T23:19:04.820Z,70.53
2018-09-03T23:24:09.709Z,71.67
2018-09-03T23:29:13.171Z,72.08
2018-09-03T23:34:16.597Z,73.25
2018-09-03T23:39:19.990Z,73.35
2018-09-03T23:44:23.757Z,73.98
2018-09-03T23:49:29.245Z,73.86
2018-09-03T23:54:35.533Z,74.56
2018-09-03T23:59:40.107Z,74.44
